createdAt,value
2022-08-30T00:01:31.307Z,101589.75
2022-08-30T00:03:59.473Z,101593.81
2022-08-30T00:06:28.837Z,101590.78
2022-08-30T00:08:57.254Z,101591.78
2022-08-30T00:11:28.071Z,101593.16
2022-08-30T00:13:58.312Z,101590.75
2022-08-30T00:16:26.847Z,101600.97
2022-08-30T00:18:54.755Z,101603.88
2022-08-30T00:21:22.454Z,101590.94
2022-08-30T00:23:49.539Z,101598.56
2022-08-30T00:26:16.663Z,101597.22
2022-08-30T00:28:43.666Z,101598.41
2022-08-30T00:31:11.035Z,101603.34
2022-08-30T00:33:45.085Z,101605.38
2022-08-30T00:36:11.928Z,101608.41
2022-08-30T00:38:39.054Z,101609.75
2022-08-30T00:41:06.002Z,101606.66
2022-08-30T00:43:36.820Z,101607.72
2022-08-30T00:46:07.869Z,101599.03
2022-08-30T00:48:41.208Z,101603.94
2022-08-30T00:51:11.602Z,101609.69
2022-08-30T00:53:44.989Z,101606.47
2022-08-30T00:56:12.779Z,101602.72
2022-08-30T00:58:46.079Z,101609.53
2022-08-30T01:01:13.688Z,101607.97
2022-08-30T01:03:42.034Z,101602.53
2022-08-30T01:06:09.147Z,101607.28
2022-08-30T01:08:35.974Z,101607.28
2022-08-30T01:11:04.330Z,101595.72
2022-08-30T01:13:34.515Z,101603.88
2022-08-30T01:16:02.876Z,101606.25
2022-08-30T01:18:32.097Z,101610.00
2022-08-30T01:21:08.592Z,101605.22
2022-08-30T01:23:39.491Z,101603.66
2022-08-30T01:26:07.943Z,101609.59
2022-08-30T01:28:35.503Z,101608.91
2022-08-30T01:31:03.211Z,101603.09
2022-08-30T01:33:30.668Z,101601.72
2022-08-30T01:36:06.085Z,101603.91
2022-08-30T01:38:43.948Z,101611.38
2022-08-30T01:41:17.434Z,101610.16
2022-08-30T01:43:45.103Z,101609.47
2022-08-30T01:46:14.155Z,101605.38
2022-08-30T01:48:42.550Z,101602.28
2022-08-30T01:51:17.692Z,101604.63
2022-08-30T01:53:45.976Z,101596.63
2022-08-30T01:56:14.601Z,101599.84
2022-08-30T01:58:41.859Z,101598.31
2022-08-30T02:01:14.081Z,101601.19
2022-08-30T02:03:44.829Z,101585.34
2022-08-30T02:06:17.077Z,101586.84
2022-08-30T02:08:44.936Z,101582.44
2022-08-30T02:11:13.291Z,101584.47
2022-08-30T02:13:42.513Z,101579.47
2022-08-30T02:16:13.056Z,101582.34
2022-08-30T02:18:41.024Z,101588.13
2022-08-30T02:21:09.756Z,101588.97
2022-08-30T02:23:37.174Z,101579.28
2022-08-30T02:26:05.144Z,101584.03
2022-08-30T02:28:32.154Z,101581.47
2022-08-30T02:31:00.153Z,101583.50
2022-08-30T02:33:27.677Z,101579.94
2022-08-30T02:35:54.712Z,101594.81
2022-08-30T02:38:21.811Z,101588.53
2022-08-30T02:40:49.147Z,101587.69
2022-08-30T02:43:17.168Z,101587.13
2022-08-30T02:45:44.500Z,101589.31
2022-08-30T02:48:11.797Z,101590.28
2022-08-30T02:50:44.012Z,101590.63
2022-08-30T02:53:14.103Z,101589.94
2022-08-30T02:55:44.327Z,101589.56
2022-08-30T02:58:11.507Z,101581.69
2022-08-30T03:00:39.803Z,101573.56
2022-08-30T03:03:07.642Z,101588.47
2022-08-30T03:05:39.627Z,101577.06
2022-08-30T03:08:08.707Z,101570.25
2022-08-30T03:10:36.167Z,101570.72
2022-08-30T03:13:03.812Z,101575.47
2022-08-30T03:15:30.744Z,101578.19
2022-08-30T03:17:58.864Z,101572.19
2022-08-30T03:20:25.985Z,101578.78
2022-08-30T03:22:53.228Z,101581.13
2022-08-30T03:25:21.461Z,101574.13
2022-08-30T03:27:48.798Z,101575.31
2022-08-30T03:30:19.088Z,101570.88
2022-08-30T03:32:46.988Z,101567.47
2022-08-30T03:35:15.273Z,101569.63
2022-08-30T03:37:42.136Z,101569.09
2022-08-30T03:40:10.831Z,101578.53
2022-08-30T03:42:38.100Z,101575.13
2022-08-30T03:45:07.894Z,101566.63
2022-08-30T03:47:34.997Z,101570.31
2022-08-30T03:50:02.320Z,101565.38
2022-08-30T03:52:29.146Z,101572.63
2022-08-30T03:54:56.383Z,101572.25
2022-08-30T03:57:24.583Z,101576.97
2022-08-30T03:59:52.100Z,101582.38
2022-08-30T04:02:19.854Z,101578.97
2022-08-30T04:04:47.236Z,101585.72
2022-08-30T04:07:14.115Z,101583.84
2022-08-30T04:09:40.935Z,101583.47
2022-08-30T04:12:08.311Z,101582.78
2022-08-30T04:14:35.231Z,101588.34
2022-08-30T04:17:02.039Z,101584.25
2022-08-30T04:19:28.942Z,101585.56
2022-08-30T04:21:57.465Z,101579.72
2022-08-30T04:24:24.783Z,101588.13
2022-08-30T04:26:51.644Z,101587.44
2022-08-30T04:29:18.902Z,101590.63
2022-08-30T04:31:46.299Z,101591.03
2022-08-30T04:34:14.319Z,101583.22
2022-08-30T04:36:41.325Z,101589.66
2022-08-30T04:39:08.342Z,101589.94
2022-08-30T04:41:37.634Z,101594.97
2022-08-30T04:44:04.442Z,101606.78
2022-08-30T04:46:31.282Z,101604.09
2022-08-30T04:48:58.152Z,101609.09
2022-08-30T04:51:25.048Z,101610.94
2022-08-30T04:53:52.238Z,101615.81
2022-08-30T04:56:22.901Z,101618.84
2022-08-30T04:58:54.297Z,101612.81
2022-08-30T05:01:28.362Z,101622.97
2022-08-30T05:03:57.068Z,101624.09
2022-08-30T05:06:27.716Z,101624.41
2022-08-30T05:08:55.751Z,101622.81
2022-08-30T05:11:23.674Z,101618.56
2022-08-30T05:13:50.994Z,101615.00
2022-08-30T05:16:19.611Z,101620.56
2022-08-30T05:18:51.948Z,101611.03
2022-08-30T05:21:28.346Z,101615.72
2022-08-30T05:24:00.350Z,101616.72
2022-08-30T05:26:32.661Z,101615.03
2022-08-30T05:29:00.570Z,101621.44
2022-08-30T05:31:34.686Z,101618.72
2022-08-30T05:34:02.511Z,101619.56
2022-08-30T05:36:32.330Z,101623.84
2022-08-30T05:39:00.672Z,101612.00
2022-08-30T05:41:28.455Z,101612.13
2022-08-30T05:44:01.458Z,101612.84
2022-08-30T05:49:20.472Z,101625.09
2022-08-30T05:51:47.419Z,101629.78
2022-08-30T05:54:15.698Z,101625.91
2022-08-30T05:56:45.707Z,101637.25
2022-08-30T05:59:14.084Z,101638.75
2022-08-30T06:01:44.858Z,101639.28
2022-08-30T06:04:13.828Z,101637.19
2022-08-30T06:06:44.048Z,101637.88
2022-08-30T06:09:13.734Z,101633.91
2022-08-30T06:11:41.131Z,101641.44
2022-08-30T06:14:08.565Z,101634.09
2022-08-30T06:16:39.070Z,101627.13
2022-08-30T06:19:08.735Z,101624.47
2022-08-30T06:21:37.162Z,101624.91
2022-08-30T06:24:07.064Z,101626.44
2022-08-30T06:26:42.870Z,101637.34
2022-08-30T06:29:17.731Z,101627.25
2022-08-30T06:31:45.301Z,101622.00
2022-08-30T06:34:12.413Z,101622.25
2022-08-30T06:36:39.486Z,101626.22
2022-08-30T06:39:07.923Z,101617.94
2022-08-30T06:41:37.784Z,101619.66
2022-08-30T06:44:06.191Z,101619.72
2022-08-30T06:46:36.657Z,101613.25
2022-08-30T06:49:05.700Z,101615.31
2022-08-30T06:51:39.854Z,101621.13
2022-08-30T06:54:10.853Z,101617.38
2022-08-30T06:56:40.336Z,101610.28
2022-08-30T06:59:10.124Z,101616.44
2022-08-30T07:01:37.081Z,101615.28
2022-08-30T07:04:04.919Z,101619.25
2022-08-30T07:06:33.160Z,101623.16
2022-08-30T07:09:00.020Z,101630.03
2022-08-30T07:11:34.141Z,101620.31
2022-08-30T07:14:01.975Z,101630.94
2022-08-30T07:16:29.459Z,101631.63
2022-08-30T07:18:58.996Z,101632.31
2022-08-30T07:21:28.920Z,101627.56
2022-08-30T07:23:58.752Z,101633.00
2022-08-30T07:26:43.371Z,101631.63
2022-08-30T07:29:10.851Z,101634.84
2022-08-30T07:31:38.299Z,101632.78
2022-08-30T07:34:07.570Z,101633.59
2022-08-30T07:36:36.671Z,101631.84
2022-08-30T07:39:06.165Z,101636.25
2022-08-30T07:41:38.773Z,101636.03
2022-08-30T07:44:08.450Z,101627.28
2022-08-30T07:46:36.158Z,101629.22
2022-08-30T07:49:04.066Z,101634.28
2022-08-30T07:51:32.537Z,101629.25
2022-08-30T07:54:00.805Z,101629.78
2022-08-30T07:56:28.249Z,101633.47
2022-08-30T07:58:55.110Z,101622.03
2022-08-30T08:01:23.819Z,101619.00
2022-08-30T08:03:51.668Z,101614.94
2022-08-30T08:06:21.439Z,101617.09
2022-08-30T08:08:49.380Z,101628.69
2022-08-30T08:11:21.132Z,101623.59
2022-08-30T08:13:53.204Z,101625.31
2022-08-30T08:16:28.367Z,101634.91
2022-08-30T08:18:55.882Z,101638.41
2022-08-30T08:21:25.661Z,101641.94
2022-08-30T08:23:52.807Z,101640.75
2022-08-30T08:26:20.534Z,101640.59
2022-08-30T08:28:47.954Z,101642.41
2022-08-30T08:31:23.663Z,101639.38
2022-08-30T08:33:57.052Z,101632.06
2022-08-30T08:36:23.870Z,101639.75
2022-08-30T08:38:50.894Z,101635.47
2022-08-30T08:41:54.211Z,101638.66
2022-08-30T08:44:44.361Z,101622.72
2022-08-30T08:47:17.607Z,101640.22
2022-08-30T08:49:48.103Z,101636.25
2022-08-30T08:53:07.222Z,101637.22
2022-08-30T08:55:34.459Z,101628.59
2022-08-30T08:58:01.982Z,101628.97
2022-08-30T09:00:30.204Z,101632.34
2022-08-30T09:03:01.171Z,101632.72
2022-08-30T09:05:36.533Z,101630.84
2022-08-30T09:08:10.066Z,101635.09
2022-08-30T09:10:54.176Z,101633.38
2022-08-30T09:13:23.023Z,101631.50
2022-08-30T09:15:54.758Z,101633.81
2022-08-30T09:18:45.594Z,101632.34
2022-08-30T09:21:15.170Z,101640.47
2022-08-30T09:23:59.315Z,101641.94
2022-08-30T09:26:37.135Z,101637.81
2022-08-30T09:29:05.838Z,101637.59
2022-08-30T09:32:10.043Z,101631.28
2022-08-30T09:34:44.354Z,101633.34
2022-08-30T09:37:31.289Z,101628.53
2022-08-30T09:39:59.012Z,101636.41
2022-08-30T09:42:29.736Z,101640.03
2022-08-30T09:45:10.761Z,101636.44
2022-08-30T09:47:43.511Z,101631.38
2022-08-30T09:50:16.738Z,101640.31
2022-08-30T09:53:19.910Z,101636.53
2022-08-30T09:56:18.910Z,101635.31
2022-08-30T09:59:34.933Z,101635.50
2022-08-30T10:02:23.845Z,101636.59
2022-08-30T10:05:32.898Z,101639.34
2022-08-30T10:08:38.199Z,101638.94
2022-08-30T10:11:33.456Z,101639.56
2022-08-30T10:14:09.039Z,101637.06
2022-08-30T10:16:44.332Z,101633.66
2022-08-30T10:19:30.732Z,101633.69
2022-08-30T10:22:07.116Z,101634.56
2022-08-30T10:24:46.883Z,101634.97
2022-08-30T10:27:26.876Z,101639.22
2022-08-30T10:30:06.319Z,101632.25
2022-08-30T10:32:42.251Z,101623.38
2022-08-30T10:35:22.570Z,101635.84
2022-08-30T10:38:03.812Z,101637.34
2022-08-30T10:41:00.344Z,101628.25
2022-08-30T10:43:59.086Z,101621.91
2022-08-30T10:47:11.139Z,101629.13
2022-08-30T10:49:49.735Z,101631.63
2022-08-30T10:52:41.483Z,101630.56
2022-08-30T10:55:16.867Z,101632.88
2022-08-30T10:57:45.441Z,101622.50
2022-08-30T11:00:24.803Z,101623.31
2022-08-30T11:03:20.357Z,101626.44
2022-08-30T11:06:25.106Z,101620.91
2022-08-30T11:09:32.407Z,101622.53
2022-08-30T11:12:32.375Z,101621.63
2022-08-30T11:15:12.145Z,101615.41
2022-08-30T11:17:54.346Z,101616.59
2022-08-30T11:20:37.796Z,101623.41
2022-08-30T11:23:36.219Z,101613.47
2022-08-30T11:26:12.162Z,101611.75
2022-08-30T11:28:47.359Z,101618.84
2022-08-30T11:31:23.570Z,101614.66
2022-08-30T11:33:57.194Z,101602.16
2022-08-30T11:36:37.662Z,101605.00
2022-08-30T11:39:06.823Z,101611.56
2022-08-30T11:42:29.303Z,101613.53
2022-08-30T11:45:26.777Z,101617.78
2022-08-30T11:48:10.654Z,101612.06
2022-08-30T11:50:59.882Z,101611.19
2022-08-30T11:54:09.415Z,101609.00
2022-08-30T11:57:11.473Z,101607.19
2022-08-30T11:59:44.591Z,101604.94
2022-08-30T12:02:54.719Z,101609.09
2022-08-30T12:05:43.103Z,101610.75
2022-08-30T12:08:24.197Z,101607.22
2022-08-30T12:11:11.255Z,101606.25
2022-08-30T12:13:38.012Z,101604.16
2022-08-30T12:16:09.507Z,101608.84
2022-08-30T12:18:39.517Z,101603.28
2022-08-30T12:21:43.947Z,101597.13
2022-08-30T12:24:22.723Z,101590.03
2022-08-30T12:26:52.822Z,101595.06
2022-08-30T12:29:22.798Z,101592.53
2022-08-30T12:32:05.195Z,101582.44
2022-08-30T12:34:37.964Z,101592.72
2022-08-30T12:37:23.657Z,101588.75
2022-08-30T12:40:22.441Z,101590.13
2022-08-30T12:43:00.710Z,101585.13
2022-08-30T12:45:52.155Z,101585.22
2022-08-30T12:48:20.712Z,101588.75
2022-08-30T12:50:56.565Z,101576.25
2022-08-30T12:53:33.619Z,101577.78
2022-08-30T12:56:15.248Z,101589.06
2022-08-30T12:58:47.586Z,101588.88
2022-08-30T13:01:19.612Z,101586.81
2022-08-30T13:04:00.113Z,101581.31
2022-08-30T13:06:51.631Z,101577.97
2022-08-30T13:09:34.045Z,101583.50
2022-08-30T13:12:21.235Z,101580.59
2022-08-30T13:14:50.086Z,101588.25
2022-08-30T13:17:19.281Z,101578.09
2022-08-30T13:20:01.418Z,101576.69
2022-08-30T13:22:41.634Z,101576.94
2022-08-30T13:25:11.601Z,101576.59
2022-08-30T13:27:39.929Z,101571.06
2022-08-30T13:30:14.839Z,101579.97
2022-08-30T13:32:42.301Z,101582.19
2022-08-30T13:35:10.813Z,101575.88
2022-08-30T13:37:50.027Z,101572.50
2022-08-30T13:40:18.386Z,101579.53
2022-08-30T13:42:49.246Z,101577.63
2022-08-30T13:48:06.772Z,101573.53
2022-08-30T13:50:33.960Z,101572.94
2022-08-30T13:53:01.115Z,101575.03
2022-08-30T13:55:29.090Z,101571.59
2022-08-30T13:57:57.685Z,101570.41
2022-08-30T14:00:26.213Z,101577.19
2022-08-30T14:02:57.205Z,101577.53
2022-08-30T14:11:11.998Z,101570.88
2022-08-30T14:16:31.606Z,101561.50
2022-08-30T14:19:00.702Z,101557.09
2022-08-30T14:21:28.554Z,101554.75
2022-08-30T14:23:57.789Z,101550.16
2022-08-30T14:26:33.612Z,101551.69
2022-08-30T14:29:09.068Z,101545.00
2022-08-30T14:31:38.187Z,101539.53
2022-08-30T14:34:06.624Z,101541.28
2022-08-30T14:36:36.552Z,101542.19
2022-08-30T14:39:08.558Z,101544.97
2022-08-30T14:41:43.651Z,101542.78
2022-08-30T14:44:12.107Z,101540.38
2022-08-30T14:46:39.166Z,101542.50
2022-08-30T14:49:07.534Z,101535.66
2022-08-30T14:51:37.080Z,101537.09
2022-08-30T14:54:04.768Z,101539.88
2022-08-30T14:56:31.773Z,101534.28
2022-08-30T14:59:00.786Z,101535.34
2022-08-30T15:01:29.965Z,101535.94
2022-08-30T15:03:58.104Z,101537.88
2022-08-30T15:06:26.395Z,101537.13
2022-08-30T15:08:55.643Z,101529.91
2022-08-30T15:11:24.756Z,101529.59
2022-08-30T15:13:53.674Z,101529.44
2022-08-30T15:16:27.922Z,101525.84
2022-08-30T15:18:56.167Z,101521.59
2022-08-30T15:21:37.326Z,101520.38
2022-08-30T15:24:06.255Z,101515.47
2022-08-30T15:26:33.569Z,101515.31
2022-08-30T15:29:00.402Z,101510.25
2022-08-30T15:31:29.688Z,101515.06
2022-08-30T15:33:57.774Z,101510.28
2022-08-30T15:36:27.688Z,101507.22
2022-08-30T15:38:55.935Z,101510.75
2022-08-30T15:41:24.219Z,101512.16
2022-08-30T15:43:52.904Z,101501.91
2022-08-30T15:46:29.604Z,101504.94
2022-08-30T15:49:03.175Z,101505.84
2022-08-30T15:51:41.134Z,101505.91
2022-08-30T15:54:11.621Z,101498.31
2022-08-30T15:56:39.906Z,101498.31
2022-08-30T15:59:09.924Z,101508.41
2022-08-30T16:01:38.292Z,101509.16
2022-08-30T16:04:05.490Z,101503.75
2022-08-30T16:06:37.919Z,101496.63
2022-08-30T16:09:09.776Z,101506.19
2022-08-30T16:11:37.591Z,101497.97
2022-08-30T16:14:06.368Z,101494.19
2022-08-30T16:16:33.877Z,101497.59
2022-08-30T16:19:01.985Z,101494.59
2022-08-30T16:21:32.485Z,101486.56
2022-08-30T16:24:02.275Z,101492.44
2022-08-30T16:26:31.784Z,101490.38
2022-08-30T16:28:59.526Z,101483.63
2022-08-30T16:31:29.525Z,101484.50
2022-08-30T16:34:02.258Z,101481.13
2022-08-30T16:36:30.293Z,101481.56
2022-08-30T16:38:58.569Z,101482.00
2022-08-30T16:41:25.862Z,101482.47
2022-08-30T16:43:53.956Z,101488.84
2022-08-30T16:46:23.410Z,101489.56
2022-08-30T16:49:00.300Z,101491.28
2022-08-30T16:51:29.894Z,101481.31
2022-08-30T16:54:00.967Z,101483.66
2022-08-30T16:56:30.941Z,101484.34
2022-08-30T16:59:02.519Z,101483.09
2022-08-30T17:01:37.771Z,101487.16
2022-08-30T17:04:06.499Z,101484.00
2022-08-30T17:06:33.311Z,101478.91
2022-08-30T17:09:03.565Z,101477.59
2022-08-30T17:11:32.866Z,101484.41
2022-08-30T17:14:01.686Z,101484.19
2022-08-30T17:16:30.324Z,101478.91
2022-08-30T17:18:59.701Z,101481.44
2022-08-30T17:21:29.583Z,101480.41
2022-08-30T17:24:02.176Z,101486.56
2022-08-30T17:26:35.631Z,101485.25
2022-08-30T17:29:04.943Z,101498.22
2022-08-30T17:31:31.833Z,101493.78
2022-08-30T17:34:04.258Z,101489.13
2022-08-30T17:36:36.843Z,101499.72
2022-08-30T17:39:11.379Z,101496.41
2022-08-30T17:41:49.781Z,101494.69
2022-08-30T17:44:28.809Z,101494.72
2022-08-30T17:46:57.101Z,101495.34
2022-08-30T17:49:25.248Z,101484.56
2022-08-30T17:51:56.329Z,101484.59
2022-08-30T17:54:24.406Z,101487.34
2022-08-30T17:56:52.527Z,101495.41
2022-08-30T17:59:20.015Z,101503.25
2022-08-30T18:01:53.871Z,101509.22
2022-08-30T18:04:25.053Z,101517.69
2022-08-30T18:06:52.598Z,101508.56
2022-08-30T18:09:19.807Z,101512.41
2022-08-30T18:11:47.350Z,101516.44
2022-08-30T18:14:15.922Z,101517.72
2022-08-30T18:16:50.281Z,101525.78
2022-08-30T18:19:23.606Z,101533.84
2022-08-30T18:21:51.592Z,101529.63
2022-08-30T18:24:18.712Z,101541.50
2022-08-30T18:26:46.678Z,101535.56
2022-08-30T18:29:13.633Z,101544.66
2022-08-30T18:31:40.547Z,101548.25
2022-08-30T18:34:12.270Z,101551.25
2022-08-30T18:36:41.342Z,101552.50
2022-08-30T18:39:08.583Z,101553.75
2022-08-30T18:41:42.920Z,101544.84
2022-08-30T18:44:27.243Z,101549.50
2022-08-30T18:46:56.379Z,101547.81
2022-08-30T18:49:25.767Z,101546.56
2022-08-30T18:51:53.202Z,101553.09
2022-08-30T18:54:20.318Z,101561.13
2022-08-30T18:56:47.329Z,101560.91
2022-08-30T18:59:14.185Z,101563.44
2022-08-30T19:01:42.739Z,101561.28
2022-08-30T19:04:11.524Z,101557.03
2022-08-30T19:06:50.082Z,101568.88
2022-08-30T19:09:17.294Z,101570.75
2022-08-30T19:11:45.146Z,101574.31
2022-08-30T19:14:12.135Z,101572.22
2022-08-30T19:16:41.268Z,101577.84
2022-08-30T19:19:10.210Z,101579.72
2022-08-30T19:21:39.888Z,101579.69
2022-08-30T19:24:07.372Z,101584.72
2022-08-30T19:26:36.195Z,101591.44
2022-08-30T19:29:05.107Z,101590.78
2022-08-30T19:31:32.295Z,101583.56
2022-08-30T19:33:59.615Z,101591.34
2022-08-30T19:36:29.127Z,101600.16
2022-08-30T19:38:56.394Z,101600.59
2022-08-30T19:41:24.262Z,101600.78
2022-08-30T19:43:51.523Z,101606.84
2022-08-30T19:46:18.511Z,101610.66
2022-08-30T19:48:45.428Z,101606.38
2022-08-30T19:51:15.283Z,101609.50
2022-08-30T19:53:43.337Z,101616.25
2022-08-30T19:56:11.000Z,101623.63
2022-08-30T19:58:38.093Z,101618.91
2022-08-30T20:01:11.852Z,101617.44
2022-08-30T20:03:52.875Z,101626.00
2022-08-30T20:06:24.168Z,101629.13
2022-08-30T20:08:51.003Z,101628.19
2022-08-30T20:11:23.473Z,101634.72
2022-08-30T20:13:50.375Z,101639.28
2022-08-30T20:16:17.762Z,101644.31
2022-08-30T20:18:45.689Z,101641.53
2022-08-30T20:21:14.670Z,101645.88
2022-08-30T20:23:43.197Z,101639.53
2022-08-30T20:26:11.926Z,101650.25
2022-08-30T20:28:40.515Z,101639.00
2022-08-30T20:31:11.272Z,101644.88
2022-08-30T20:33:39.327Z,101637.44
2022-08-30T20:36:09.959Z,101640.97
2022-08-30T20:38:38.240Z,101651.25
2022-08-30T20:41:12.626Z,101657.31
2022-08-30T20:43:40.537Z,101655.16
2022-08-30T20:46:13.893Z,101649.19
2022-08-30T20:48:42.373Z,101660.75
2022-08-30T20:51:17.421Z,101657.31
2022-08-30T20:53:45.136Z,101656.66
2022-08-30T20:56:15.552Z,101657.06
2022-08-30T20:58:43.263Z,101662.06
2022-08-30T21:01:13.958Z,101662.91
2022-08-30T21:03:41.997Z,101664.06
2022-08-30T21:06:09.340Z,101665.78
2022-08-30T21:08:36.171Z,101668.03
2022-08-30T21:11:03.453Z,101665.47
2022-08-30T21:13:30.867Z,101673.03
2022-08-30T21:16:03.793Z,101671.88
2022-08-30T21:18:36.784Z,101680.66
2022-08-30T21:21:22.330Z,101673.84
2022-08-30T21:23:49.790Z,101679.72
2022-08-30T21:26:18.092Z,101686.22
2022-08-30T21:28:53.825Z,101679.59
2022-08-30T21:31:25.378Z,101688.38
2022-08-30T21:33:54.467Z,101691.47
2022-08-30T21:36:41.786Z,101689.97
2022-08-30T21:39:10.565Z,101690.81
2022-08-30T21:41:39.045Z,101693.91
2022-08-30T21:44:11.562Z,101692.59
2022-08-30T21:46:39.602Z,101690.03
2022-08-30T21:49:09.876Z,101690.78
2022-08-30T21:51:42.115Z,101695.78
2022-08-30T21:54:11.184Z,101699.75
2022-08-30T21:56:41.365Z,101692.47
2022-08-30T21:59:09.918Z,101696.22
2022-08-30T22:01:38.596Z,101701.59
2022-08-30T22:04:08.834Z,101696.00
2022-08-30T22:06:38.248Z,101698.81
2022-08-30T22:09:09.081Z,101695.41
2022-08-30T22:11:37.418Z,101699.72
2022-08-30T22:14:05.907Z,101697.34
2022-08-30T22:16:33.409Z,101711.25
2022-08-30T22:19:01.785Z,101709.91
2022-08-30T22:21:32.223Z,101714.69
2022-08-30T22:23:59.855Z,101703.44
2022-08-30T22:26:27.300Z,101704.00
2022-08-30T22:28:55.204Z,101701.78
2022-08-30T22:31:23.796Z,101699.44
2022-08-30T22:33:52.866Z,101698.25
2022-08-30T22:36:33.080Z,101706.63
2022-08-30T22:39:01.769Z,101696.88
2022-08-30T22:41:31.710Z,101704.78
2022-08-30T22:43:59.035Z,101709.75
2022-08-30T22:46:33.881Z,101709.59
2022-08-30T22:49:04.898Z,101723.09
2022-08-30T22:51:32.368Z,101716.28
2022-08-30T22:54:00.967Z,101712.38
2022-08-30T22:56:28.850Z,101719.06
2022-08-30T22:58:56.159Z,101724.53
2022-08-30T23:01:29.650Z,101725.88
2022-08-30T23:03:58.026Z,101729.00
2022-08-30T23:06:26.067Z,101732.41
2022-08-30T23:08:52.973Z,101731.03
2022-08-30T23:11:20.877Z,101724.22
2022-08-30T23:13:48.217Z,101727.13
2022-08-30T23:16:16.810Z,101730.22
2022-08-30T23:18:46.260Z,101735.50
2022-08-30T23:21:23.372Z,101736.22
2022-08-30T23:24:11.218Z,101742.00
2022-08-30T23:27:00.208Z,101738.59
2022-08-30T23:29:46.183Z,101731.63
2022-08-30T23:32:33.046Z,101733.84
2022-08-30T23:35:18.790Z,101736.06
2022-08-30T23:38:05.563Z,101739.13
2022-08-30T23:40:51.310Z,101736.06
2022-08-30T23:43:36.863Z,101738.28
2022-08-30T23:46:22.799Z,101737.97
2022-08-30T23:49:09.580Z,101738.31
2022-08-30T23:51:56.401Z,101725.72
2022-08-30T23:54:43.368Z,101729.75
2022-08-30T23:57:28.997Z,101727.03
